createdAt,value
2023-01-09T00:02:03.968Z,96147.20
2023-01-09T00:04:30.753Z,96137.40
2023-01-09T00:06:57.617Z,96129.60
2023-01-09T00:09:24.993Z,96124.00
2023-01-09T00:11:52.530Z,96126.40
2023-01-09T00:14:19.579Z,96118.20
2023-01-09T00:16:46.878Z,96114.20
2023-01-09T00:19:14.285Z,96111.60
2023-01-09T00:21:41.114Z,96114.20
2023-01-09T00:24:08.602Z,96105.80
2023-01-09T00:26:35.833Z,96096.80
2023-01-09T00:29:03.768Z,96092.40
2023-01-09T00:31:31.147Z,96098.00
2023-01-09T00:34:05.363Z,96098.20
2023-01-09T00:36:32.620Z,96093.60
2023-01-09T00:38:59.669Z,96090.40
2023-01-09T00:41:30.830Z,96089.40
2023-01-09T00:44:03.439Z,96066.00
2023-01-09T00:46:35.024Z,96072.60
2023-01-09T00:49:04.375Z,96062.80
2023-01-09T00:51:31.396Z,96061.00
2023-01-09T00:53:58.465Z,96060.80
2023-01-09T00:56:26.046Z,96064.00
2023-01-09T00:58:53.479Z,96061.80
2023-01-09T01:01:20.346Z,96050.60
2023-01-09T01:03:47.160Z,96062.20
2023-01-09T01:06:32.415Z,96053.20
2023-01-09T01:08:59.278Z,96038.80
2023-01-09T01:11:26.411Z,96036.40
2023-01-09T01:13:54.053Z,96030.40
2023-01-09T01:16:20.840Z,96032.00
2023-01-09T01:18:47.658Z,96033.80
2023-01-09T01:21:15.452Z,96027.00
2023-01-09T01:23:42.566Z,96028.00
2023-01-09T01:26:12.679Z,96020.20
2023-01-09T01:28:40.266Z,95998.20
2023-01-09T01:31:07.664Z,96017.20
2023-01-09T01:33:35.457Z,96010.80
2023-01-09T01:36:06.506Z,96008.60
2023-01-09T01:38:33.944Z,96007.00
2023-01-09T01:41:02.353Z,95992.80
2023-01-09T01:43:49.777Z,95995.60
2023-01-09T01:46:18.721Z,95987.40
2023-01-09T01:48:48.246Z,95982.40
2023-01-09T01:51:18.385Z,95985.60
2023-01-09T01:53:51.742Z,95974.00
2023-01-09T01:56:37.699Z,95966.00
2023-01-09T01:59:14.333Z,95974.80
2023-01-09T02:01:44.395Z,95962.00
2023-01-09T02:04:12.142Z,95958.20
2023-01-09T02:06:39.263Z,95952.20
2023-01-09T02:09:06.713Z,95943.40
2023-01-09T02:11:34.277Z,95951.20
2023-01-09T02:14:02.450Z,95944.00
2023-01-09T02:16:59.816Z,95938.00
2023-01-09T02:19:53.726Z,95934.40
2023-01-09T02:22:35.786Z,95931.60
2023-01-09T02:25:32.015Z,95935.00
2023-01-09T02:28:22.356Z,95931.80
2023-01-09T02:31:01.335Z,95922.60
2023-01-09T02:34:05.871Z,95917.20
2023-01-09T02:36:46.356Z,95911.40
2023-01-09T02:39:20.049Z,95908.60
2023-01-09T02:41:55.879Z,95909.40
2023-01-09T02:44:25.495Z,95901.60
2023-01-09T02:47:08.104Z,95899.40
2023-01-09T02:49:38.573Z,95893.20
2023-01-09T02:52:13.521Z,95884.60
2023-01-09T02:55:06.309Z,95888.40
2023-01-09T02:57:48.215Z,95878.80
2023-01-09T03:00:58.640Z,95880.60
2023-01-09T03:03:49.592Z,95888.20
2023-01-09T03:06:32.702Z,95886.00
2023-01-09T03:09:08.651Z,95890.00
2023-01-09T03:11:41.696Z,95897.20
2023-01-09T03:14:16.165Z,95904.80
2023-01-09T03:16:47.375Z,95900.60
2023-01-09T03:19:18.299Z,95903.60
2023-01-09T03:21:46.545Z,95903.80
2023-01-09T03:24:13.878Z,95901.80
2023-01-09T03:26:40.747Z,95902.00
2023-01-09T03:29:07.458Z,95889.00
2023-01-09T03:31:34.232Z,95893.60
2023-01-09T03:34:01.049Z,95897.40
2023-01-09T03:36:27.779Z,95894.60
2023-01-09T03:38:54.525Z,95890.40
2023-01-09T03:41:21.230Z,95890.40
2023-01-09T03:43:48.591Z,95889.00
2023-01-09T03:46:18.324Z,95881.80
2023-01-09T03:48:45.067Z,95875.60
2023-01-09T03:51:11.812Z,95873.80
2023-01-09T03:53:39.499Z,95877.60
2023-01-09T03:56:06.655Z,95874.60
2023-01-09T03:58:33.292Z,95883.20
2023-01-09T04:01:03.688Z,95875.00
2023-01-09T04:03:30.630Z,95881.20
2023-01-09T04:05:57.472Z,95871.00
2023-01-09T04:08:24.196Z,95873.80
2023-01-09T04:10:52.627Z,95871.80
2023-01-09T04:13:19.774Z,95865.80
2023-01-09T04:15:46.683Z,95867.80
2023-01-09T04:18:14.034Z,95867.00
2023-01-09T04:20:40.948Z,95866.80
2023-01-09T04:23:07.939Z,95881.00
2023-01-09T04:25:34.968Z,95880.20
2023-01-09T04:28:01.827Z,95891.00
2023-01-09T04:30:28.492Z,95896.80
2023-01-09T04:32:55.205Z,95892.60
2023-01-09T04:35:21.972Z,95900.40
2023-01-09T04:37:48.712Z,95902.80
2023-01-09T04:40:17.147Z,95911.00
2023-01-09T04:42:43.788Z,95915.20
2023-01-09T04:45:11.843Z,95921.80
2023-01-09T04:47:38.805Z,95934.60
2023-01-09T04:50:06.130Z,95937.80
2023-01-09T04:52:33.021Z,95939.00
2023-01-09T04:54:59.734Z,95942.40
2023-01-09T04:57:26.582Z,95943.20
2023-01-09T04:59:54.260Z,95952.20
2023-01-09T05:02:21.196Z,95962.80
2023-01-09T05:04:47.894Z,95972.20
2023-01-09T05:07:14.793Z,95971.60
2023-01-09T05:09:42.078Z,95971.00
2023-01-09T05:12:08.743Z,95974.60
2023-01-09T05:14:35.521Z,95983.00
2023-01-09T05:17:02.188Z,95987.80
2023-01-09T05:19:28.860Z,95984.60
2023-01-09T05:21:55.622Z,95987.40
2023-01-09T05:24:22.359Z,95984.00
2023-01-09T05:26:49.079Z,95989.20
2023-01-09T05:29:15.835Z,95990.60
2023-01-09T05:31:42.527Z,96011.40
2023-01-09T05:34:09.469Z,96011.20
2023-01-09T05:36:36.151Z,96028.00
2023-01-09T05:39:03.408Z,96043.00
2023-01-09T05:41:30.148Z,96064.20
2023-01-09T05:43:56.871Z,96087.20
2023-01-09T05:46:23.629Z,96105.60
2023-01-09T05:48:50.269Z,96115.20
2023-01-09T05:51:17.235Z,96108.20
2023-01-09T05:53:44.152Z,96110.60
2023-01-09T05:56:11.782Z,96110.40
2023-01-09T05:58:39.040Z,96115.20
2023-01-09T06:01:06.295Z,96121.80
2023-01-09T06:03:33.406Z,96126.60
2023-01-09T06:06:00.215Z,96125.20
2023-01-09T06:08:26.957Z,96124.20
2023-01-09T06:10:53.657Z,96134.80
2023-01-09T06:13:20.431Z,96137.20
2023-01-09T06:15:48.678Z,96135.00
2023-01-09T06:18:16.167Z,96137.20
2023-01-09T06:20:45.917Z,96134.40
2023-01-09T06:23:13.653Z,96144.00
2023-01-09T06:25:41.062Z,96151.60
2023-01-09T06:28:08.120Z,96146.40
2023-01-09T06:30:35.281Z,96151.00
2023-01-09T06:33:02.031Z,96153.20
2023-01-09T06:35:28.785Z,96147.40
2023-01-09T06:37:55.628Z,96158.40
2023-01-09T06:40:22.460Z,96152.80
2023-01-09T06:42:50.210Z,96149.80
2023-01-09T06:45:17.426Z,96159.40
2023-01-09T06:47:44.108Z,96173.40
2023-01-09T06:50:12.160Z,96164.20
2023-01-09T06:52:40.097Z,96164.60
2023-01-09T06:55:08.002Z,96166.80
2023-01-09T06:57:35.106Z,96175.60
2023-01-09T07:00:02.100Z,96178.00
2023-01-09T07:02:28.761Z,96180.40
2023-01-09T07:04:55.482Z,96181.40
2023-01-09T07:07:22.696Z,96186.40
2023-01-09T07:09:49.810Z,96187.40
2023-01-09T07:12:16.583Z,96199.60
2023-01-09T07:14:43.285Z,96203.40
2023-01-09T07:17:16.346Z,96202.00
2023-01-09T07:19:43.044Z,96206.80
2023-01-09T07:22:10.844Z,96214.00
2023-01-09T07:24:37.641Z,96213.00
2023-01-09T07:27:04.535Z,96222.60
2023-01-09T07:29:31.452Z,96220.80
2023-01-09T07:31:58.321Z,96216.20
2023-01-09T07:34:25.080Z,96225.20
2023-01-09T07:36:52.018Z,96226.80
2023-01-09T07:39:18.950Z,96226.60
2023-01-09T07:41:46.141Z,96224.00
2023-01-09T07:44:14.907Z,96219.80
2023-01-09T07:46:41.825Z,96233.80
2023-01-09T07:49:08.792Z,96227.60
2023-01-09T07:51:35.567Z,96225.40
2023-01-09T07:54:02.368Z,96230.40
2023-01-09T07:56:29.101Z,96244.40
2023-01-09T07:58:55.944Z,96262.40
2023-01-09T08:01:22.826Z,96286.80
2023-01-09T08:03:49.599Z,96295.80
2023-01-09T08:06:16.374Z,96305.00
2023-01-09T08:08:43.301Z,96320.80
2023-01-09T08:11:10.491Z,96325.80
2023-01-09T08:13:38.015Z,96326.60
2023-01-09T08:16:05.483Z,96333.20
2023-01-09T08:18:32.528Z,96345.00
2023-01-09T08:20:59.293Z,96349.40
2023-01-09T08:23:26.300Z,96344.40
2023-01-09T08:25:53.492Z,96345.20
2023-01-09T08:28:20.265Z,96341.60
2023-01-09T08:30:47.946Z,96332.00
2023-01-09T08:33:15.313Z,96342.00
2023-01-09T08:35:44.501Z,96344.40
2023-01-09T08:38:11.772Z,96344.00
2023-01-09T08:40:39.020Z,96343.60
2023-01-09T08:43:25.113Z,96347.60
2023-01-09T08:46:10.915Z,96352.20
2023-01-09T08:48:37.649Z,96360.60
2023-01-09T08:51:04.340Z,96367.80
2023-01-09T08:53:31.670Z,96373.20
2023-01-09T08:55:59.287Z,96382.00
2023-01-09T08:58:26.446Z,96385.80
2023-01-09T09:00:53.276Z,96392.20
2023-01-09T09:03:21.904Z,96395.20
2023-01-09T09:05:48.598Z,96402.00
2023-01-09T09:08:16.517Z,96407.20
2023-01-09T09:10:43.415Z,96408.00
2023-01-09T09:13:10.144Z,96413.80
2023-01-09T09:15:38.256Z,96417.60
2023-01-09T09:18:07.248Z,96422.40
2023-01-09T09:20:38.982Z,96430.80
2023-01-09T09:23:08.202Z,96436.00
2023-01-09T09:25:38.337Z,96438.20
2023-01-09T09:28:06.066Z,96439.40
2023-01-09T09:30:33.325Z,96444.80
2023-01-09T09:33:02.330Z,96439.80
2023-01-09T09:35:29.142Z,96437.20
2023-01-09T09:38:03.934Z,96434.60
2023-01-09T09:40:39.145Z,96429.80
2023-01-09T09:44:06.390Z,96428.20
2023-01-09T09:46:50.725Z,96429.40
2023-01-09T09:49:55.985Z,96424.40
2023-01-09T09:52:55.267Z,96418.80
2023-01-09T09:55:29.897Z,96429.80
2023-01-09T09:58:00.118Z,96424.20
2023-01-09T10:00:28.214Z,96422.60
2023-01-09T10:03:08.301Z,96406.40
2023-01-09T10:05:39.815Z,96400.60
2023-01-09T10:08:32.532Z,96394.00
2023-01-09T10:10:59.588Z,96391.60
2023-01-09T10:13:45.475Z,96387.00
2023-01-09T10:16:30.445Z,96387.20
2023-01-09T10:19:26.471Z,96383.60
2023-01-09T10:22:25.222Z,96381.60
2023-01-09T10:24:55.027Z,96374.00
2023-01-09T10:27:58.353Z,96381.80
2023-01-09T10:30:33.111Z,96387.40
2023-01-09T10:33:21.878Z,96386.40
2023-01-09T10:35:56.071Z,96386.20
2023-01-09T10:38:29.163Z,96372.00
2023-01-09T10:41:18.086Z,96390.60
2023-01-09T10:43:57.461Z,96387.20
2023-01-09T10:46:30.421Z,96385.00
2023-01-09T10:49:07.011Z,96393.40
2023-01-09T10:51:44.915Z,96395.80
2023-01-09T10:54:15.412Z,96393.00
2023-01-09T10:56:50.256Z,96392.20
2023-01-09T10:59:17.026Z,96400.20
2023-01-09T11:01:44.188Z,96403.60
2023-01-09T11:04:30.861Z,96399.40
2023-01-09T11:07:04.895Z,96408.80
2023-01-09T11:10:02.958Z,96411.80
2023-01-09T11:12:32.062Z,96410.80
2023-01-09T11:15:19.388Z,96413.00
2023-01-09T11:17:51.844Z,96411.00
2023-01-09T11:20:26.264Z,96412.00
2023-01-09T11:22:55.863Z,96415.60
2023-01-09T11:25:27.890Z,96425.00
2023-01-09T11:28:03.805Z,96427.20
2023-01-09T11:30:34.225Z,96408.00
2023-01-09T11:33:01.168Z,96409.40
2023-01-09T11:35:34.767Z,96405.60
2023-01-09T11:38:12.730Z,96404.80
2023-01-09T11:40:49.561Z,96411.80
2023-01-09T11:43:38.404Z,96421.80
2023-01-09T11:46:08.248Z,96437.40
2023-01-09T11:48:38.354Z,96440.40
2023-01-09T11:51:20.633Z,96437.80
2023-01-09T11:54:04.584Z,96444.60
2023-01-09T11:56:31.626Z,96442.40
2023-01-09T11:59:00.114Z,96443.40
2023-01-09T12:01:45.526Z,96445.00
2023-01-09T12:04:32.317Z,96443.40
2023-01-09T12:07:17.629Z,96441.80
2023-01-09T12:09:59.875Z,96446.00
2023-01-09T12:12:31.164Z,96443.20
2023-01-09T12:15:20.900Z,96475.80
2023-01-09T12:17:53.641Z,96454.60
2023-01-09T12:20:38.884Z,96452.40
2023-01-09T12:23:32.004Z,96443.00
2023-01-09T12:26:16.330Z,96441.60
2023-01-09T12:28:58.665Z,96445.20
2023-01-09T12:31:28.486Z,96441.20
2023-01-09T12:34:13.653Z,96434.20
2023-01-09T12:37:18.120Z,96430.20
2023-01-09T12:40:05.338Z,96423.80
2023-01-09T12:42:59.988Z,96443.40
2023-01-09T12:45:57.502Z,96447.00
2023-01-09T12:48:59.823Z,96451.60
2023-01-09T12:51:39.630Z,96447.00
2023-01-09T12:54:09.343Z,96442.80
2023-01-09T12:56:45.634Z,96440.40
2023-01-09T12:59:32.637Z,96434.00
2023-01-09T13:02:09.101Z,96439.40
2023-01-09T13:04:47.423Z,96442.00
2023-01-09T13:07:20.633Z,96439.20
2023-01-09T13:10:24.148Z,96450.40
2023-01-09T13:12:52.609Z,96446.20
2023-01-09T13:15:28.477Z,96443.40
2023-01-09T13:18:00.293Z,96440.40
2023-01-09T13:20:45.205Z,96438.80
2023-01-09T13:23:40.466Z,96441.20
2023-01-09T13:26:15.391Z,96440.80
2023-01-09T13:28:59.919Z,96438.60
2023-01-09T13:31:40.502Z,96444.80
2023-01-09T13:34:21.984Z,96446.60
2023-01-09T13:36:55.017Z,96443.20
2023-01-09T13:39:27.792Z,96450.60
2023-01-09T13:42:17.374Z,96446.20
2023-01-09T13:44:45.874Z,96452.40
2023-01-09T13:47:29.088Z,96459.20
2023-01-09T13:50:22.151Z,96458.00
2023-01-09T13:52:50.207Z,96458.60
2023-01-09T13:55:16.906Z,96462.60
2023-01-09T13:57:46.302Z,96471.60
2023-01-09T14:00:13.116Z,96473.80
2023-01-09T14:02:41.068Z,96472.20
2023-01-09T14:05:12.039Z,96482.00
2023-01-09T14:07:44.582Z,96490.40
2023-01-09T14:10:38.635Z,96489.00
2023-01-09T14:13:15.635Z,96489.40
2023-01-09T14:15:46.564Z,96496.20
2023-01-09T14:18:23.973Z,96496.20
2023-01-09T14:21:01.562Z,96495.60
2023-01-09T14:23:51.142Z,96497.00
2023-01-09T14:26:23.239Z,96496.00
2023-01-09T14:28:50.457Z,96492.00
2023-01-09T14:31:35.420Z,96494.80
2023-01-09T14:34:30.931Z,96494.20
2023-01-09T14:37:01.091Z,96493.60
2023-01-09T14:39:31.685Z,96498.00
2023-01-09T14:42:09.316Z,96502.00
2023-01-09T14:45:01.518Z,96500.40
2023-01-09T14:47:31.349Z,96497.20
2023-01-09T14:50:28.159Z,96504.80
2023-01-09T14:53:10.672Z,96502.40
2023-01-09T14:55:58.245Z,96506.60
2023-01-09T14:58:29.253Z,96500.00
2023-01-09T15:01:02.127Z,96495.80
2023-01-09T15:03:46.182Z,96490.60
2023-01-09T15:06:20.173Z,96488.60
2023-01-09T15:08:55.023Z,96490.60
2023-01-09T15:11:22.081Z,96492.20
2023-01-09T15:13:52.576Z,96487.20
2023-01-09T15:16:22.198Z,96479.00
2023-01-09T15:18:54.536Z,96473.60
2023-01-09T15:21:26.883Z,96468.80
2023-01-09T15:23:54.105Z,96477.60
2023-01-09T15:26:29.957Z,96473.40
2023-01-09T15:29:16.260Z,96464.00
2023-01-09T15:31:46.155Z,96471.80
2023-01-09T15:34:19.560Z,96477.60
2023-01-09T15:36:49.307Z,96476.60
2023-01-09T15:39:25.023Z,96484.00
2023-01-09T15:42:10.788Z,96483.40
2023-01-09T15:44:40.565Z,96483.80
2023-01-09T15:47:13.020Z,96489.60
2023-01-09T15:49:40.132Z,96492.40
2023-01-09T15:52:11.934Z,96498.60
2023-01-09T15:54:40.137Z,96498.60
2023-01-09T15:57:30.973Z,96501.00
2023-01-09T16:00:29.475Z,96496.40
2023-01-09T16:03:12.181Z,96494.80
2023-01-09T16:05:49.124Z,96493.60
2023-01-09T16:08:42.533Z,96491.60
2023-01-09T16:11:20.058Z,96487.60
2023-01-09T16:13:47.148Z,96490.40
2023-01-09T16:16:27.746Z,96492.00
2023-01-09T16:18:56.121Z,96493.20
2023-01-09T16:21:32.676Z,96489.20
2023-01-09T16:24:01.666Z,96493.60
2023-01-09T16:26:29.986Z,96496.40
2023-01-09T16:29:17.065Z,96500.00
2023-01-09T16:31:43.845Z,96498.80
2023-01-09T16:34:13.612Z,96506.40
2023-01-09T16:36:40.307Z,96512.40
2023-01-09T16:39:18.999Z,96521.60
2023-01-09T16:42:04.239Z,96521.40
2023-01-09T16:44:30.954Z,96520.80
2023-01-09T16:46:59.048Z,96524.20
2023-01-09T16:49:28.352Z,96524.80
2023-01-09T16:51:55.645Z,96518.80
2023-01-09T16:54:22.581Z,96516.80
2023-01-09T16:56:52.649Z,96516.20
2023-01-09T16:59:24.520Z,96518.80
2023-01-09T17:01:52.679Z,96520.00
2023-01-09T17:04:20.328Z,96517.60
2023-01-09T17:06:49.426Z,96521.20
2023-01-09T17:09:19.438Z,96530.80
2023-01-09T17:11:46.991Z,96534.80
2023-01-09T17:14:15.036Z,96536.00
2023-01-09T17:16:45.990Z,96535.60
2023-01-09T17:19:19.295Z,96532.80
2023-01-09T17:21:47.593Z,96538.20
2023-01-09T17:24:34.278Z,96545.40
2023-01-09T17:27:21.036Z,96542.00
2023-01-09T17:29:48.872Z,96544.20
2023-01-09T17:32:18.017Z,96532.00
2023-01-09T17:34:45.612Z,96535.80
2023-01-09T17:37:17.986Z,96539.60
2023-01-09T17:39:46.230Z,96538.00
2023-01-09T17:42:13.273Z,96539.20
2023-01-09T17:44:40.215Z,96536.60
2023-01-09T17:47:07.727Z,96542.80
2023-01-09T17:49:34.485Z,96542.00
2023-01-09T17:52:02.149Z,96539.60
2023-01-09T17:54:29.195Z,96541.40
2023-01-09T17:56:56.560Z,96543.00
2023-01-09T17:59:27.480Z,96543.80
2023-01-09T18:01:55.236Z,96543.60
2023-01-09T18:04:23.003Z,96547.20
2023-01-09T18:06:50.067Z,96543.80
2023-01-09T18:09:18.825Z,96543.80
2023-01-09T18:11:45.816Z,96548.60
2023-01-09T18:14:13.930Z,96551.80
2023-01-09T18:16:41.557Z,96554.20
2023-01-09T18:19:09.779Z,96556.80
2023-01-09T18:21:36.646Z,96556.00
2023-01-09T18:24:04.216Z,96548.80
2023-01-09T18:26:31.464Z,96548.60
2023-01-09T18:29:00.767Z,96561.40
2023-01-09T18:31:29.499Z,96556.80
2023-01-09T18:33:58.473Z,96564.60
2023-01-09T18:36:30.412Z,96570.00
2023-01-09T18:38:59.621Z,96572.20
2023-01-09T18:41:27.533Z,96576.40
2023-01-09T18:44:00.237Z,96584.40
2023-01-09T18:46:32.401Z,96589.40
2023-01-09T18:49:02.687Z,96593.20
2023-01-09T18:51:30.588Z,96591.20
2023-01-09T18:53:58.925Z,96590.80
2023-01-09T18:56:25.604Z,96597.60
2023-01-09T18:58:58.190Z,96596.60
2023-01-09T19:01:28.846Z,96599.80
2023-01-09T19:03:57.908Z,96601.40
2023-01-09T19:06:25.677Z,96583.80
2023-01-09T19:08:52.786Z,96590.40
2023-01-09T19:11:20.322Z,96592.20
2023-01-09T19:13:47.287Z,96586.00
2023-01-09T19:16:14.157Z,96591.80
2023-01-09T19:18:42.168Z,96585.80
2023-01-09T19:21:12.897Z,96586.60
2023-01-09T19:23:41.736Z,96582.60
2023-01-09T19:26:15.200Z,96578.80
2023-01-09T19:28:45.308Z,96581.00
2023-01-09T19:31:14.698Z,96580.80
2023-01-09T19:33:42.252Z,96581.60
2023-01-09T19:36:09.384Z,96578.60
2023-01-09T19:38:36.743Z,96578.80
2023-01-09T19:41:14.608Z,96584.00
2023-01-09T19:43:45.922Z,96585.40
2023-01-09T19:46:15.259Z,96595.60
2023-01-09T19:48:43.289Z,96596.20
2023-01-09T19:51:12.409Z,96598.20
2023-01-09T19:53:40.458Z,96600.40
2023-01-09T19:56:10.336Z,96598.40
2023-01-09T19:58:38.228Z,96597.80
2023-01-09T20:01:17.133Z,96603.20
2023-01-09T20:03:46.768Z,96609.60
2023-01-09T20:06:19.194Z,96617.60
2023-01-09T20:08:53.673Z,96622.40
2023-01-09T20:11:22.997Z,96624.00
2023-01-09T20:13:50.987Z,96620.20
2023-01-09T20:16:21.191Z,96624.60
2023-01-09T20:18:48.283Z,96626.60
2023-01-09T20:21:22.239Z,96631.80
2023-01-09T20:23:53.218Z,96636.20
2023-01-09T20:26:20.896Z,96634.80
2023-01-09T20:28:47.702Z,96637.40
2023-01-09T20:31:16.980Z,96643.80
2023-01-09T20:33:44.382Z,96647.00
2023-01-09T20:36:11.113Z,96652.00
2023-01-09T20:38:38.792Z,96653.40
2023-01-09T20:41:08.715Z,96651.80
2023-01-09T20:43:36.277Z,96657.60
2023-01-09T20:46:04.277Z,96663.60
2023-01-09T20:48:31.598Z,96661.60
2023-01-09T20:51:05.923Z,96660.00
2023-01-09T20:53:32.847Z,96655.60
2023-01-09T20:56:01.636Z,96674.40
2023-01-09T20:58:28.787Z,96678.80
2023-01-09T21:00:55.662Z,96682.00
2023-01-09T21:03:22.901Z,96682.00
2023-01-09T21:05:49.553Z,96675.00
2023-01-09T21:08:17.053Z,96682.20
2023-01-09T21:10:43.823Z,96682.40
2023-01-09T21:13:10.759Z,96688.00
2023-01-09T21:15:39.035Z,96688.20
2023-01-09T21:18:05.891Z,96697.60
2023-01-09T21:20:32.674Z,96699.80
2023-01-09T21:22:59.444Z,96700.20
2023-01-09T21:25:26.609Z,96702.80
2023-01-09T21:27:53.452Z,96702.00
2023-01-09T21:30:20.402Z,96707.80
2023-01-09T21:32:47.105Z,96697.80
2023-01-09T21:35:13.750Z,96710.20
2023-01-09T21:37:40.511Z,96713.00
2023-01-09T21:40:17.090Z,96716.40
2023-01-09T21:43:03.345Z,96716.40
2023-01-09T21:45:48.712Z,96728.00
2023-01-09T21:48:15.457Z,96732.60
2023-01-09T21:50:42.341Z,96739.20
2023-01-09T21:53:09.019Z,96745.60
2023-01-09T21:55:35.660Z,96748.40
2023-01-09T21:58:02.559Z,96749.80
2023-01-09T22:00:29.972Z,96751.60
2023-01-09T22:02:56.835Z,96757.00
2023-01-09T22:05:27.378Z,96760.60
2023-01-09T22:07:56.167Z,96767.80
2023-01-09T22:10:22.918Z,96768.00
2023-01-09T22:13:10.222Z,96768.20
2023-01-09T22:15:36.983Z,96770.40
2023-01-09T22:18:03.785Z,96775.00
2023-01-09T22:20:30.564Z,96778.60
2023-01-09T22:22:57.196Z,96787.60
2023-01-09T22:25:23.939Z,96786.60
2023-01-09T22:27:50.580Z,96786.40
2023-01-09T22:30:18.128Z,96792.20
2023-01-09T22:32:44.826Z,96795.60
2023-01-09T22:35:11.617Z,96794.60
2023-01-09T22:37:38.336Z,96810.60
2023-01-09T22:40:05.706Z,96808.80
2023-01-09T22:42:32.342Z,96805.20
2023-01-09T22:44:59.081Z,96805.80
2023-01-09T22:47:26.028Z,96811.60
2023-01-09T22:49:53.613Z,96813.40
2023-01-09T22:52:21.870Z,96812.00
2023-01-09T22:54:48.699Z,96815.40
2023-01-09T22:57:15.399Z,96814.80
2023-01-09T22:59:42.109Z,96810.60
2023-01-09T23:02:08.892Z,96812.20
2023-01-09T23:04:35.658Z,96815.80
2023-01-09T23:07:02.407Z,96822.00
2023-01-09T23:09:29.144Z,96822.20
2023-01-09T23:12:05.717Z,96822.80
2023-01-09T23:14:36.084Z,96820.20
2023-01-09T23:17:03.947Z,96823.40
2023-01-09T23:19:32.759Z,96822.00
2023-01-09T23:22:00.978Z,96822.80
2023-01-09T23:24:28.983Z,96828.40
2023-01-09T23:26:56.518Z,96836.40
2023-01-09T23:29:24.261Z,96835.80
2023-01-09T23:31:53.691Z,96835.60
2023-01-09T23:34:25.750Z,96842.80
2023-01-09T23:36:54.433Z,96850.00
2023-01-09T23:39:21.472Z,96850.80
2023-01-09T23:42:07.038Z,96858.40
2023-01-09T23:44:36.341Z,96867.20
2023-01-09T23:47:03.606Z,96861.80
2023-01-09T23:49:30.352Z,96860.40
2023-01-09T23:51:57.402Z,96859.60
2023-01-09T23:54:24.105Z,96861.80
2023-01-09T23:56:50.786Z,96861.80
2023-01-09T23:59:18.148Z,96871.80
